createdAt,value
2022-09-07T00:00:58.715Z,2.28
2022-09-07T00:03:25.236Z,2.90
2022-09-07T00:05:52.089Z,2.75
2022-09-07T00:08:21.895Z,3.15
2022-09-07T00:11:02.440Z,1.98
2022-09-07T00:13:32.702Z,2.92
2022-09-07T00:16:03.340Z,2.45
2022-09-07T00:18:29.843Z,2.80
2022-09-07T00:21:01.532Z,2.60
2022-09-07T00:23:30.119Z,2.35
2022-09-07T00:26:24.620Z,2.60
2022-09-07T00:28:51.165Z,3.47
2022-09-07T00:31:22.126Z,3.13
2022-09-07T00:33:50.655Z,2.22
2022-09-07T00:36:18.341Z,3.00
2022-09-07T00:38:45.175Z,3.15
2022-09-07T00:41:12.393Z,2.55
2022-09-07T00:43:40.511Z,2.30
2022-09-07T00:46:14.360Z,2.35
2022-09-07T00:48:52.366Z,2.63
2022-09-07T00:51:46.888Z,2.25
2022-09-07T00:54:21.512Z,2.95
2022-09-07T00:56:50.027Z,2.63
2022-09-07T00:59:21.656Z,2.92
2022-09-07T01:01:48.327Z,2.80
2022-09-07T01:04:16.060Z,2.88
2022-09-07T01:06:43.356Z,3.25
2022-09-07T01:09:13.110Z,2.60
2022-09-07T01:11:40.239Z,2.67
2022-09-07T01:14:10.834Z,2.80
2022-09-07T01:16:54.434Z,2.85
2022-09-07T01:19:26.918Z,3.13
2022-09-07T01:22:08.718Z,2.72
2022-09-07T01:24:41.736Z,2.40
2022-09-07T01:30:02.030Z,3.40
2022-09-07T01:32:43.544Z,3.38
2022-09-07T01:35:33.791Z,3.30
2022-09-07T01:38:21.357Z,3.63
2022-09-07T01:41:26.914Z,3.25
2022-09-07T01:44:05.620Z,3.88
2022-09-07T01:46:39.861Z,3.25
2022-09-07T01:49:11.981Z,3.33
2022-09-07T01:51:44.556Z,4.03
2022-09-07T01:54:18.575Z,2.92
2022-09-07T01:56:48.548Z,3.03
2022-09-07T01:59:24.174Z,4.10
2022-09-07T02:01:57.541Z,3.45
2022-09-07T02:04:31.520Z,4.05
2022-09-07T02:07:18.122Z,3.42
2022-09-07T02:09:54.462Z,3.35
2022-09-07T02:12:35.050Z,4.18
2022-09-07T02:15:23.970Z,3.78
2022-09-07T02:17:58.724Z,3.75
2022-09-07T02:20:31.231Z,4.55
2022-09-07T02:23:02.387Z,5.43
2022-09-07T02:25:37.724Z,5.05
2022-09-07T02:28:14.868Z,5.65
2022-09-07T02:30:41.825Z,4.90
2022-09-07T02:33:08.458Z,4.93
2022-09-07T02:35:35.366Z,4.93
2022-09-07T02:38:05.238Z,4.85
2022-09-07T02:40:32.110Z,4.28
2022-09-07T02:43:03.278Z,5.57
2022-09-07T02:45:50.170Z,4.25
2022-09-07T02:48:27.791Z,4.90
2022-09-07T02:51:01.000Z,4.85
2022-09-07T02:54:01.434Z,5.60
2022-09-07T02:56:56.870Z,5.28
2022-09-07T02:59:52.251Z,4.18
2022-09-07T03:02:57.847Z,5.53
2022-09-07T03:05:46.049Z,4.15
2022-09-07T03:08:18.062Z,4.65
2022-09-07T03:10:45.474Z,4.43
2022-09-07T03:13:23.293Z,4.25
2022-09-07T03:15:53.697Z,4.75
2022-09-07T03:18:23.602Z,4.82
2022-09-07T03:20:50.093Z,5.40
2022-09-07T03:23:16.463Z,5.30
2022-09-07T03:25:43.262Z,4.82
2022-09-07T03:28:10.072Z,5.30
2022-09-07T03:30:36.520Z,4.72
2022-09-07T03:33:02.971Z,5.07
2022-09-07T03:35:29.367Z,5.15
2022-09-07T03:37:55.717Z,4.35
2022-09-07T03:40:22.107Z,6.13
2022-09-07T03:42:50.144Z,4.85
2022-09-07T03:45:16.883Z,4.07
2022-09-07T03:47:43.298Z,5.53
2022-09-07T03:50:09.893Z,5.40
2022-09-07T03:52:37.016Z,5.40
2022-09-07T03:55:04.375Z,5.18
2022-09-07T03:57:30.845Z,5.18
2022-09-07T03:59:57.199Z,4.30
2022-09-07T04:02:23.655Z,5.45
2022-09-07T04:04:50.114Z,5.00
2022-09-07T04:07:16.498Z,4.82
2022-09-07T04:09:42.927Z,4.72
2022-09-07T04:12:09.403Z,6.32
2022-09-07T04:14:35.758Z,4.63
2022-09-07T04:17:02.289Z,4.63
2022-09-07T04:19:29.736Z,6.07
2022-09-07T04:21:56.134Z,4.40
2022-09-07T04:24:22.554Z,4.40
2022-09-07T04:26:49.008Z,4.53
2022-09-07T04:29:15.440Z,5.60
2022-09-07T04:31:42.076Z,4.72
2022-09-07T04:34:10.028Z,4.45
2022-09-07T04:36:36.578Z,4.43
2022-09-07T04:39:04.785Z,5.00
2022-09-07T04:41:33.020Z,5.05
2022-09-07T04:44:01.353Z,3.90
2022-09-07T04:46:30.432Z,4.78
2022-09-07T04:48:59.124Z,5.25
2022-09-07T04:51:28.187Z,3.65
2022-09-07T04:53:56.416Z,3.33
2022-09-07T04:56:23.611Z,3.85
2022-09-07T04:58:50.409Z,4.45
2022-09-07T05:01:19.364Z,3.70
2022-09-07T05:03:46.454Z,4.38
2022-09-07T05:06:13.397Z,4.50
2022-09-07T05:08:45.558Z,5.18
2022-09-07T05:11:13.342Z,3.97
2022-09-07T05:13:40.235Z,3.95
2022-09-07T05:16:28.239Z,4.35
2022-09-07T05:18:57.520Z,6.13
2022-09-07T05:21:26.266Z,4.93
2022-09-07T05:23:55.350Z,4.25
2022-09-07T05:26:25.543Z,4.65
2022-09-07T05:28:52.418Z,5.10
2022-09-07T05:31:21.827Z,4.43
2022-09-07T05:36:40.463Z,5.38
2022-09-07T05:39:07.514Z,4.43
2022-09-07T05:41:34.409Z,5.25
2022-09-07T05:46:47.239Z,5.25
2022-09-07T05:49:13.655Z,5.07
2022-09-07T05:51:40.071Z,4.50
2022-09-07T05:54:06.693Z,5.28
2022-09-07T05:56:36.286Z,5.45
2022-09-07T05:59:03.047Z,5.47
2022-09-07T06:01:29.525Z,5.50
2022-09-07T06:03:55.877Z,5.30
2022-09-07T06:06:22.473Z,5.10
2022-09-07T06:08:50.872Z,6.38
2022-09-07T06:11:19.528Z,4.60
2022-09-07T06:13:46.282Z,6.15
2022-09-07T06:16:14.294Z,7.43
2022-09-07T06:18:43.038Z,6.60
2022-09-07T06:21:21.031Z,5.75
2022-09-07T06:23:48.939Z,5.93
2022-09-07T06:26:16.933Z,5.32
2022-09-07T06:28:49.092Z,6.40
2022-09-07T06:31:18.485Z,5.03
2022-09-07T06:33:47.399Z,7.35
2022-09-07T06:36:21.978Z,6.28
2022-09-07T06:38:49.822Z,7.70
2022-09-07T06:44:06.200Z,6.43
2022-09-07T06:49:19.056Z,6.75
2022-09-07T06:51:45.443Z,7.90
2022-09-07T06:56:58.369Z,7.50
2022-09-07T06:59:24.854Z,6.45
2022-09-07T07:01:51.356Z,7.93
2022-09-07T07:04:17.723Z,5.32
2022-09-07T07:06:45.360Z,6.85
2022-09-07T07:09:13.543Z,6.30
2022-09-07T07:11:40.043Z,5.72
2022-09-07T07:14:06.436Z,5.50
2022-09-07T07:16:33.046Z,6.95
2022-09-07T07:18:59.495Z,5.53
2022-09-07T07:21:26.023Z,5.93
2022-09-07T07:23:53.558Z,6.18
2022-09-07T07:26:22.487Z,5.93
2022-09-07T07:29:06.095Z,6.50
2022-09-07T07:31:33.595Z,5.38
2022-09-07T07:34:00.094Z,5.55
2022-09-07T07:36:27.989Z,6.70
2022-09-07T07:38:59.972Z,6.18
2022-09-07T07:44:17.579Z,6.15
2022-09-07T07:46:47.648Z,5.05
2022-09-07T07:49:14.073Z,4.22
2022-09-07T07:54:26.735Z,4.82
2022-09-07T07:56:53.039Z,4.70
2022-09-07T07:59:19.440Z,5.35
2022-09-07T08:01:45.855Z,4.50
2022-09-07T08:04:12.319Z,4.47
2022-09-07T08:06:42.498Z,4.28
2022-09-07T08:09:08.967Z,3.63
2022-09-07T08:11:35.359Z,4.57
2022-09-07T08:14:05.767Z,4.80
2022-09-07T08:16:33.956Z,4.22
2022-09-07T08:19:01.024Z,4.68
2022-09-07T08:21:27.334Z,4.97
2022-09-07T08:23:53.657Z,4.20
2022-09-07T08:26:19.943Z,4.25
2022-09-07T08:28:46.608Z,4.05
2022-09-07T08:31:15.369Z,3.58
2022-09-07T08:33:41.991Z,5.05
2022-09-07T08:36:18.439Z,3.95
2022-09-07T08:38:45.381Z,4.18
2022-09-07T08:41:48.885Z,4.95
2022-09-07T08:44:18.177Z,4.43
2022-09-07T08:46:56.412Z,4.57
2022-09-07T08:49:33.503Z,3.63
2022-09-07T08:52:14.765Z,4.13
2022-09-07T08:54:45.258Z,3.78
2022-09-07T08:57:21.207Z,4.40
2022-09-07T09:00:11.507Z,4.45
2022-09-07T09:02:43.408Z,4.15
2022-09-07T09:05:27.569Z,3.78
2022-09-07T09:08:03.338Z,4.32
2022-09-07T09:10:41.137Z,4.32
2022-09-07T09:13:19.810Z,4.97
2022-09-07T09:16:18.177Z,4.20
2022-09-07T09:19:20.931Z,4.22
2022-09-07T09:21:47.324Z,4.00
2022-09-07T09:24:17.293Z,4.20
2022-09-07T09:29:19.427Z,5.50
2022-09-07T09:31:46.062Z,4.43
2022-09-07T09:34:15.168Z,3.45
2022-09-07T09:36:50.627Z,3.20
2022-09-07T09:39:28.963Z,3.65
2022-09-07T09:41:58.242Z,3.92
2022-09-07T09:44:31.330Z,3.72
2022-09-07T09:49:45.218Z,4.85
2022-09-07T09:52:29.626Z,3.67
2022-09-07T09:55:03.290Z,3.67
2022-09-07T10:03:59.371Z,4.10
2022-09-07T10:06:29.217Z,3.63
2022-09-07T10:09:01.630Z,4.15
2022-09-07T10:12:07.100Z,3.05
2022-09-07T10:14:35.800Z,3.53
2022-09-07T10:17:12.666Z,3.22
2022-09-07T10:19:41.828Z,3.75
2022-09-07T10:22:32.739Z,2.95
2022-09-07T10:25:00.755Z,4.00
2022-09-07T10:27:36.172Z,4.22
2022-09-07T10:30:19.770Z,4.32
2022-09-07T10:32:53.263Z,3.10
2022-09-07T10:35:25.566Z,2.80
2022-09-07T10:38:20.178Z,3.58
2022-09-07T10:40:53.490Z,3.35
2022-09-07T10:43:38.069Z,3.03
2022-09-07T10:49:38.966Z,2.90
2022-09-07T10:52:33.440Z,3.45
2022-09-07T10:55:11.493Z,3.85
2022-09-07T10:57:53.102Z,3.13
2022-09-07T11:00:21.053Z,3.38
2022-09-07T11:06:16.237Z,3.60
2022-09-07T11:09:18.378Z,3.60
2022-09-07T11:12:04.669Z,3.37
2022-09-07T11:14:42.647Z,3.13
2022-09-07T11:17:27.754Z,3.13
2022-09-07T11:20:16.702Z,3.80
2022-09-07T11:22:49.699Z,4.10
2022-09-07T11:25:29.607Z,3.13
2022-09-07T11:28:01.858Z,3.00
2022-09-07T11:30:35.803Z,2.90
2022-09-07T11:33:19.141Z,3.55
2022-09-07T11:38:32.857Z,3.75
2022-09-07T11:41:23.394Z,4.13
2022-09-07T11:44:09.660Z,3.20
2022-09-07T11:46:45.407Z,2.90
2022-09-07T11:49:32.262Z,2.97
2022-09-07T11:52:08.779Z,3.00
2022-09-07T11:54:52.219Z,3.20
2022-09-07T11:58:12.979Z,4.20
2022-09-07T12:01:02.871Z,3.45
2022-09-07T12:04:04.100Z,3.17
2022-09-07T12:06:42.960Z,3.60
2022-09-07T12:09:20.526Z,3.15
2022-09-07T12:12:10.373Z,3.42
2022-09-07T12:14:45.783Z,3.97
2022-09-07T12:17:52.481Z,3.83
2022-09-07T12:20:21.674Z,3.53
2022-09-07T12:23:04.211Z,3.70
2022-09-07T12:25:34.652Z,3.45
2022-09-07T12:28:01.404Z,3.38
2022-09-07T12:30:29.957Z,3.20
2022-09-07T12:32:57.841Z,3.85
2022-09-07T12:35:28.061Z,3.50
2022-09-07T12:37:56.021Z,3.75
2022-09-07T12:40:32.104Z,4.10
2022-09-07T12:43:13.769Z,3.33
2022-09-07T12:45:40.107Z,3.28
2022-09-07T12:48:32.704Z,3.30
2022-09-07T12:54:26.983Z,2.78
2022-09-07T13:00:09.856Z,2.65
2022-09-07T13:03:05.336Z,2.10
2022-09-07T13:05:49.946Z,2.10
2022-09-07T13:08:40.756Z,2.50
2022-09-07T13:11:29.804Z,2.28
2022-09-07T13:14:04.961Z,1.65
2022-09-07T13:19:46.656Z,1.43
2022-09-07T13:22:31.238Z,1.77
2022-09-07T13:24:59.761Z,1.70
2022-09-07T13:27:40.786Z,2.38
2022-09-07T13:30:16.695Z,2.30
2022-09-07T13:35:31.784Z,2.10
2022-09-07T13:38:01.676Z,2.00
2022-09-07T13:40:32.084Z,1.70
2022-09-07T13:42:59.416Z,2.20
2022-09-07T13:45:29.438Z,1.90
2022-09-07T13:48:09.068Z,1.92
2022-09-07T13:50:52.203Z,1.60
2022-09-07T13:53:53.914Z,2.10
2022-09-07T13:57:02.958Z,1.90
2022-09-07T13:59:33.251Z,2.05
2022-09-07T14:01:59.670Z,2.20
2022-09-07T14:04:32.271Z,2.28
2022-09-07T14:07:06.475Z,2.75
2022-09-07T14:09:33.759Z,2.33
2022-09-07T14:12:00.545Z,12.85
2022-09-07T14:14:33.125Z,6.10
2022-09-07T14:16:59.450Z,10.95
2022-09-07T14:19:33.980Z,6.22
2022-09-07T14:22:03.048Z,3.40
2022-09-07T14:24:33.287Z,2.22
2022-09-07T14:27:00.387Z,2.15
2022-09-07T14:29:32.118Z,2.42
2022-09-07T14:32:00.569Z,2.40
2022-09-07T14:34:37.830Z,2.28
2022-09-07T14:37:07.541Z,1.92
2022-09-07T14:39:38.507Z,2.20
2022-09-07T14:42:06.212Z,2.05
2022-09-07T14:44:38.733Z,2.03
2022-09-07T14:47:30.263Z,2.03
2022-09-07T14:50:04.576Z,2.10
2022-09-07T14:52:43.724Z,2.20
2022-09-07T14:55:31.620Z,2.72
2022-09-07T14:58:09.093Z,2.33
2022-09-07T15:00:35.571Z,2.30
2022-09-07T15:03:50.344Z,2.40
2022-09-07T15:09:34.926Z,2.60
2022-09-07T15:12:36.118Z,2.05
2022-09-07T15:15:22.050Z,2.38
2022-09-07T15:17:48.721Z,2.50
2022-09-07T15:20:35.301Z,2.65
2022-09-07T15:23:04.675Z,2.15
2022-09-07T15:25:32.291Z,2.00
2022-09-07T15:27:58.787Z,1.90
2022-09-07T15:30:26.003Z,2.70
2022-09-07T15:32:53.043Z,3.80
2022-09-07T15:35:19.395Z,2.63
2022-09-07T15:38:02.260Z,3.03
2022-09-07T15:40:36.438Z,1.52
2022-09-07T15:43:13.766Z,1.67
2022-09-07T15:45:51.068Z,1.45
2022-09-07T15:48:25.315Z,1.38
2022-09-07T15:51:00.563Z,1.92
2022-09-07T15:56:14.406Z,1.80
2022-09-07T15:58:43.449Z,1.80
2022-09-07T16:03:58.241Z,1.65
2022-09-07T16:06:26.447Z,1.45
2022-09-07T16:08:52.876Z,1.85
2022-09-07T16:11:23.847Z,1.50
2022-09-07T16:14:02.153Z,1.48
2022-09-07T16:19:22.047Z,1.70
2022-09-07T16:21:48.429Z,1.70
2022-09-07T16:24:14.783Z,1.60
2022-09-07T16:26:41.090Z,1.83
2022-09-07T16:29:07.901Z,1.50
2022-09-07T16:31:35.024Z,1.55
2022-09-07T16:34:02.677Z,1.40
2022-09-07T16:36:28.980Z,1.70
2022-09-07T16:38:57.704Z,1.75
2022-09-07T16:41:27.364Z,1.42
2022-09-07T16:43:54.735Z,1.27
2022-09-07T16:46:23.619Z,1.80
2022-09-07T16:48:51.057Z,1.90
2022-09-07T16:51:22.490Z,1.50
2022-09-07T16:53:51.048Z,1.60
2022-09-07T16:56:19.505Z,1.45
2022-09-07T16:58:55.858Z,2.85
2022-09-07T17:01:28.234Z,1.98
2022-09-07T17:03:54.890Z,1.90
2022-09-07T17:06:24.611Z,1.40
2022-09-07T17:09:01.063Z,2.00
2022-09-07T17:11:36.379Z,2.55
2022-09-07T17:14:23.061Z,1.63
2022-09-07T17:16:49.493Z,1.15
2022-09-07T17:19:31.874Z,1.50
2022-09-07T17:21:59.795Z,1.60
2022-09-07T17:24:26.310Z,1.67
2022-09-07T17:26:52.645Z,1.83
2022-09-07T17:29:19.180Z,1.90
2022-09-07T17:34:31.865Z,1.85
2022-09-07T17:37:00.522Z,1.50
2022-09-07T17:39:27.489Z,2.40
2022-09-07T17:41:54.370Z,1.98
2022-09-07T17:44:21.672Z,1.85
2022-09-07T17:46:47.973Z,1.63
2022-09-07T17:49:16.053Z,1.85
2022-09-07T17:51:43.205Z,2.10
2022-09-07T17:54:13.262Z,2.13
2022-09-07T17:56:41.218Z,1.83
2022-09-07T18:01:55.356Z,1.58
2022-09-07T18:04:22.147Z,1.58
2022-09-07T18:06:48.713Z,1.73
2022-09-07T18:09:15.133Z,13.45
2022-09-07T18:11:47.273Z,11.88
2022-09-07T18:14:15.283Z,21.55
2022-09-07T18:16:43.818Z,16.90
2022-09-07T18:19:11.936Z,17.73
2022-09-07T18:21:41.676Z,2.92
2022-09-07T18:24:14.015Z,2.10
2022-09-07T18:26:40.995Z,1.65
2022-09-07T18:29:26.036Z,1.70
2022-09-07T18:31:54.937Z,1.60
2022-09-07T18:34:21.811Z,2.03
2022-09-07T18:36:48.090Z,1.50
2022-09-07T18:39:14.558Z,1.63
2022-09-07T18:41:41.887Z,1.40
2022-09-07T18:45:27.016Z,1.70
2022-09-07T18:46:54.540Z,1.77
2022-09-07T18:49:20.873Z,1.70
2022-09-07T18:54:33.497Z,1.60
2022-09-07T18:56:59.872Z,1.65
2022-09-07T18:59:26.728Z,1.60
2022-09-07T19:01:54.823Z,1.58
2022-09-07T19:04:23.722Z,2.03
2022-09-07T19:06:50.414Z,1.60
2022-09-07T19:09:16.792Z,1.83
2022-09-07T19:11:43.759Z,1.60
2022-09-07T19:14:10.231Z,1.90
2022-09-07T19:16:36.715Z,2.17
2022-09-07T19:19:06.056Z,2.25
2022-09-07T19:21:35.468Z,1.80
2022-09-07T19:24:16.959Z,1.65
2022-09-07T19:26:47.511Z,1.90
2022-09-07T19:29:16.651Z,1.77
2022-09-07T19:32:07.389Z,2.08
2022-09-07T19:34:45.605Z,2.50
2022-09-07T19:37:13.455Z,2.03
2022-09-07T19:39:39.953Z,1.52
2022-09-07T19:42:09.224Z,1.80
2022-09-07T19:44:35.685Z,1.90
2022-09-07T19:47:02.147Z,1.80
2022-09-07T19:49:28.575Z,1.48
2022-09-07T19:51:56.588Z,1.50
2022-09-07T19:54:26.178Z,1.85
2022-09-07T19:56:53.054Z,2.40
2022-09-07T19:59:20.154Z,1.58
2022-09-07T20:01:57.057Z,2.08
2022-09-07T20:04:30.459Z,1.90
2022-09-07T20:07:03.170Z,1.83
2022-09-07T20:09:42.693Z,1.95
2022-09-07T20:12:34.462Z,2.30
2022-09-07T20:15:09.361Z,2.28
2022-09-07T20:17:39.583Z,2.10
2022-09-07T20:20:11.300Z,2.50
2022-09-07T20:22:58.284Z,2.00
2022-09-07T20:29:38.307Z,1.92
2022-09-07T20:32:48.558Z,2.00
2022-09-07T20:35:24.343Z,2.13
2022-09-07T20:38:15.463Z,3.40
2022-09-07T20:41:31.155Z,2.53
2022-09-07T20:44:03.637Z,2.25
2022-09-07T20:46:36.973Z,2.70
2022-09-07T20:49:24.992Z,2.92
2022-09-07T20:52:05.483Z,3.17
2022-09-07T20:54:35.170Z,2.55
2022-09-07T20:57:04.219Z,3.92
2022-09-07T20:59:38.752Z,3.15
2022-09-07T21:02:09.854Z,2.70
2022-09-07T21:05:00.311Z,2.10
2022-09-07T21:07:29.156Z,2.30
2022-09-07T21:10:07.345Z,2.63
2022-09-07T21:13:05.637Z,2.50
2022-09-07T21:15:32.170Z,2.20
2022-09-07T21:18:03.706Z,3.25
2022-09-07T21:20:52.812Z,2.10
2022-09-07T21:23:35.452Z,2.38
2022-09-07T21:29:15.736Z,2.50
2022-09-07T21:31:55.273Z,2.35
2022-09-07T21:34:36.099Z,2.65
2022-09-07T21:37:10.687Z,2.78
2022-09-07T21:39:37.247Z,1.98
2022-09-07T21:42:17.399Z,2.47
2022-09-07T21:44:56.696Z,2.13
2022-09-07T21:47:28.808Z,2.15
2022-09-07T21:49:55.328Z,2.53
2022-09-07T21:52:29.031Z,2.92
2022-09-07T21:55:08.805Z,3.10
2022-09-07T21:57:52.574Z,2.40
2022-09-07T22:00:24.301Z,4.57
2022-09-07T22:03:00.670Z,2.50
2022-09-07T22:05:29.520Z,2.45
2022-09-07T22:07:58.753Z,3.13
2022-09-07T22:10:40.716Z,2.65
2022-09-07T22:13:31.634Z,2.75
2022-09-07T22:15:59.847Z,2.40
2022-09-07T22:18:54.773Z,3.53
2022-09-07T22:22:00.489Z,3.30
2022-09-07T22:24:52.717Z,1.92
2022-09-07T22:27:37.351Z,1.90
2022-09-07T22:30:19.064Z,2.40
2022-09-07T22:33:16.349Z,2.22
2022-09-07T22:36:24.860Z,2.35
2022-09-07T22:38:57.234Z,2.15
2022-09-07T22:41:32.445Z,1.88
2022-09-07T22:43:59.702Z,2.45
2022-09-07T22:46:28.671Z,1.85
2022-09-07T22:48:57.243Z,2.22
2022-09-07T22:51:26.477Z,2.72
2022-09-07T22:53:54.188Z,2.20
2022-09-07T22:56:23.797Z,1.88
2022-09-07T22:58:53.262Z,2.13
2022-09-07T23:01:21.950Z,2.30
2022-09-07T23:03:49.078Z,2.05
2022-09-07T23:06:27.585Z,2.38
2022-09-07T23:08:56.602Z,2.70
2022-09-07T23:11:24.490Z,2.40
2022-09-07T23:13:52.987Z,2.30
2022-09-07T23:16:19.871Z,2.50
2022-09-07T23:18:46.582Z,2.60
2022-09-07T23:21:12.987Z,1.83
2022-09-07T23:23:39.580Z,1.95
2022-09-07T23:26:06.223Z,1.83
2022-09-07T23:28:33.464Z,1.80
2022-09-07T23:31:00.034Z,2.00
2022-09-07T23:33:27.154Z,2.30
2022-09-07T23:36:03.073Z,1.90
2022-09-07T23:38:30.322Z,2.20
2022-09-07T23:40:57.801Z,2.70
2022-09-07T23:43:27.240Z,2.10
2022-09-07T23:45:54.495Z,2.15
2022-09-07T23:48:21.681Z,2.50
2022-09-07T23:50:48.759Z,3.38
2022-09-07T23:53:16.250Z,2.80
2022-09-07T23:55:42.659Z,3.33
2022-09-07T23:58:09.404Z,2.50
